sensor_id;sensor_type;location;lat;lon;timestamp;P1;durP1;ratioP1;P2;durP2;ratioP2
11685;SDS011;5899;51.282;6.094;2022-10-03T00:02:25;9.88;;;6.32;;
11685;SDS011;5899;51.282;6.094;2022-10-03T00:05:02;11.35;;;5.72;;
11685;SDS011;5899;51.282;6.094;2022-10-03T00:07:40;9.55;;;5.85;;
11685;SDS011;5899;51.282;6.094;2022-10-03T00:10:13;45.53;;;8.27;;
11685;SDS011;5899;51.282;6.094;2022-10-03T00:12:49;10.35;;;6.10;;
11685;SDS011;5899;51.282;6.094;2022-10-03T00:15:23;7.82;;;5.65;;
11685;SDS011;5899;51.282;6.094;2022-10-03T00:17:53;12.63;;;6.20;;
11685;SDS011;5899;51.282;6.094;2022-10-03T00:20:31;9.98;;;6.15;;
11685;SDS011;5899;51.282;6.094;2022-10-03T00:23:00;9.50;;;5.90;;
11685;SDS011;5899;51.282;6.094;2022-10-03T00:25:35;10.32;;;6.28;;
11685;SDS011;5899;51.282;6.094;2022-10-03T00:28:07;8.65;;;6.00;;
11685;SDS011;5899;51.282;6.094;2022-10-03T00:30:50;8.68;;;6.80;;
11685;SDS011;5899;51.282;6.094;2022-10-03T00:33:21;10.43;;;6.75;;
11685;SDS011;5899;51.282;6.094;2022-10-03T00:35:53;8.95;;;6.65;;
11685;SDS011;5899;51.282;6.094;2022-10-03T00:38:33;11.05;;;6.90;;
11685;SDS011;5899;51.282;6.094;2022-10-03T00:46:53;8.60;;;5.97;;
11685;SDS011;5899;51.282;6.094;2022-10-03T00:49:36;9.35;;;6.95;;
11685;SDS011;5899;51.282;6.094;2022-10-03T00:54:53;8.63;;;6.70;;
11685;SDS011;5899;51.282;6.094;2022-10-03T00:57:31;15.25;;;7.60;;
11685;SDS011;5899;51.282;6.094;2022-10-03T01:00:10;9.38;;;6.88;;
11685;SDS011;5899;51.282;6.094;2022-10-03T01:02:59;9.98;;;7.55;;
11685;SDS011;5899;51.282;6.094;2022-10-03T01:05:30;10.70;;;6.97;;
11685;SDS011;5899;51.282;6.094;2022-10-03T01:08:09;10.32;;;6.93;;
11685;SDS011;5899;51.282;6.094;2022-10-03T01:10:43;10.98;;;7.70;;
11685;SDS011;5899;51.282;6.094;2022-10-03T01:13:15;11.48;;;7.30;;
11685;SDS011;5899;51.282;6.094;2022-10-03T01:15:48;11.05;;;7.38;;
11685;SDS011;5899;51.282;6.094;2022-10-03T01:18:23;11.20;;;8.10;;
11685;SDS011;5899;51.282;6.094;2022-10-03T01:20:53;12.70;;;7.28;;
11685;SDS011;5899;51.282;6.094;2022-10-03T01:28:58;13.15;;;8.57;;
11685;SDS011;5899;51.282;6.094;2022-10-03T01:31:46;15.95;;;8.05;;
11685;SDS011;5899;51.282;6.094;2022-10-03T01:34:21;13.63;;;7.68;;
11685;SDS011;5899;51.282;6.094;2022-10-03T01:36:51;9.93;;;8.48;;
11685;SDS011;5899;51.282;6.094;2022-10-03T01:39:25;12.48;;;7.97;;
11685;SDS011;5899;51.282;6.094;2022-10-03T01:41:56;10.52;;;7.47;;
11685;SDS011;5899;51.282;6.094;2022-10-03T01:44:30;13.85;;;7.50;;
11685;SDS011;5899;51.282;6.094;2022-10-03T01:47:06;17.23;;;8.50;;
11685;SDS011;5899;51.282;6.094;2022-10-03T01:49:35;10.63;;;7.38;;
11685;SDS011;5899;51.282;6.094;2022-10-03T01:52:05;11.80;;;7.68;;
11685;SDS011;5899;51.282;6.094;2022-10-03T01:54:38;11.88;;;8.77;;
11685;SDS011;5899;51.282;6.094;2022-10-03T01:57:10;10.88;;;7.80;;
11685;SDS011;5899;51.282;6.094;2022-10-03T01:59:46;12.02;;;8.02;;
11685;SDS011;5899;51.282;6.094;2022-10-03T02:02:19;13.52;;;8.38;;
11685;SDS011;5899;51.282;6.094;2022-10-03T02:04:47;20.65;;;9.02;;
11685;SDS011;5899;51.282;6.094;2022-10-03T02:07:21;12.93;;;7.53;;
11685;SDS011;5899;51.282;6.094;2022-10-03T02:09:50;12.32;;;7.78;;
11685;SDS011;5899;51.282;6.094;2022-10-03T02:12:25;12.60;;;8.07;;
11685;SDS011;5899;51.282;6.094;2022-10-03T02:14:56;11.77;;;8.57;;
11685;SDS011;5899;51.282;6.094;2022-10-03T02:17:26;13.50;;;8.23;;
11685;SDS011;5899;51.282;6.094;2022-10-03T02:19:59;10.82;;;8.35;;
11685;SDS011;5899;51.282;6.094;2022-10-03T02:22:30;10.90;;;8.10;;
11685;SDS011;5899;51.282;6.094;2022-10-03T02:25:24;13.45;;;8.60;;
11685;SDS011;5899;51.282;6.094;2022-10-03T02:28:13;10.07;;;8.43;;
11685;SDS011;5899;51.282;6.094;2022-10-03T02:30:52;14.68;;;8.80;;
11685;SDS011;5899;51.282;6.094;2022-10-03T02:33:23;12.25;;;8.80;;
11685;SDS011;5899;51.282;6.094;2022-10-03T02:36:07;13.63;;;8.27;;
11685;SDS011;5899;51.282;6.094;2022-10-03T02:41:34;13.00;;;9.07;;
11685;SDS011;5899;51.282;6.094;2022-10-03T02:49:55;9.98;;;8.20;;
11685;SDS011;5899;51.282;6.094;2022-10-03T02:52:36;15.68;;;8.57;;
11685;SDS011;5899;51.282;6.094;2022-10-03T02:55:23;14.43;;;7.93;;
11685;SDS011;5899;51.282;6.094;2022-10-03T02:58:04;13.82;;;9.38;;
11685;SDS011;5899;51.282;6.094;2022-10-03T03:00:40;13.35;;;9.10;;
11685;SDS011;5899;51.282;6.094;2022-10-03T03:06:05;12.95;;;9.00;;
11685;SDS011;5899;51.282;6.094;2022-10-03T03:08:56;15.88;;;9.18;;
11685;SDS011;5899;51.282;6.094;2022-10-03T03:17:00;13.23;;;9.07;;
11685;SDS011;5899;51.282;6.094;2022-10-03T03:19:45;12.13;;;8.48;;
11685;SDS011;5899;51.282;6.094;2022-10-03T03:22:20;13.80;;;9.55;;
11685;SDS011;5899;51.282;6.094;2022-10-03T03:24:57;13.85;;;9.25;;
11685;SDS011;5899;51.282;6.094;2022-10-03T03:27:31;13.93;;;9.77;;
11685;SDS011;5899;51.282;6.094;2022-10-03T03:30:03;13.48;;;10.43;;
11685;SDS011;5899;51.282;6.094;2022-10-03T03:32:35;14.95;;;10.10;;
11685;SDS011;5899;51.282;6.094;2022-10-03T03:35:06;11.30;;;9.48;;
11685;SDS011;5899;51.282;6.094;2022-10-03T03:37:41;11.70;;;9.88;;
11685;SDS011;5899;51.282;6.094;2022-10-03T03:40:17;11.23;;;8.80;;
11685;SDS011;5899;51.282;6.094;2022-10-03T03:43:09;13.57;;;10.40;;
11685;SDS011;5899;51.282;6.094;2022-10-03T03:45:44;13.18;;;9.50;;
11685;SDS011;5899;51.282;6.094;2022-10-03T03:51:00;12.55;;;9.23;;
11685;SDS011;5899;51.282;6.094;2022-10-03T03:53:37;13.20;;;10.40;;
11685;SDS011;5899;51.282;6.094;2022-10-03T03:56:22;12.82;;;9.35;;
11685;SDS011;5899;51.282;6.094;2022-10-03T03:58:56;14.77;;;10.02;;
11685;SDS011;5899;51.282;6.094;2022-10-03T04:01:36;17.00;;;11.32;;
11685;SDS011;5899;51.282;6.094;2022-10-03T04:04:19;13.70;;;10.35;;
11685;SDS011;5899;51.282;6.094;2022-10-03T04:07:02;11.73;;;9.98;;
11685;SDS011;5899;51.282;6.094;2022-10-03T04:10:02;15.30;;;10.73;;
11685;SDS011;5899;51.282;6.094;2022-10-03T04:12:39;15.95;;;12.00;;
11685;SDS011;5899;51.282;6.094;2022-10-03T04:15:14;16.55;;;10.93;;
11685;SDS011;5899;51.282;6.094;2022-10-03T04:18:08;13.07;;;9.88;;
11685;SDS011;5899;51.282;6.094;2022-10-03T04:21:00;14.23;;;11.10;;
11685;SDS011;5899;51.282;6.094;2022-10-03T04:23:40;12.05;;;9.95;;
11685;SDS011;5899;51.282;6.094;2022-10-03T04:26:18;23.70;;;10.75;;
11685;SDS011;5899;51.282;6.094;2022-10-03T04:28:54;77.95;;;13.00;;
11685;SDS011;5899;51.282;6.094;2022-10-03T04:31:30;20.52;;;10.82;;
11685;SDS011;5899;51.282;6.094;2022-10-03T04:34:20;15.63;;;10.07;;
11685;SDS011;5899;51.282;6.094;2022-10-03T04:37:06;16.95;;;11.68;;
11685;SDS011;5899;51.282;6.094;2022-10-03T04:39:40;13.77;;;11.68;;
11685;SDS011;5899;51.282;6.094;2022-10-03T04:42:16;16.85;;;11.20;;
11685;SDS011;5899;51.282;6.094;2022-10-03T04:44:56;13.20;;;11.02;;
11685;SDS011;5899;51.282;6.094;2022-10-03T04:47:41;15.07;;;11.23;;
11685;SDS011;5899;51.282;6.094;2022-10-03T04:50:12;14.75;;;11.38;;
11685;SDS011;5899;51.282;6.094;2022-10-03T04:52:47;15.77;;;11.95;;
11685;SDS011;5899;51.282;6.094;2022-10-03T04:55:17;16.88;;;11.65;;
11685;SDS011;5899;51.282;6.094;2022-10-03T05:00:32;17.67;;;12.70;;
11685;SDS011;5899;51.282;6.094;2022-10-03T05:03:11;17.35;;;13.18;;
11685;SDS011;5899;51.282;6.094;2022-10-03T05:05:45;18.08;;;12.55;;
11685;SDS011;5899;51.282;6.094;2022-10-03T05:08:22;39.53;;;14.30;;
11685;SDS011;5899;51.282;6.094;2022-10-03T05:11:01;17.52;;;13.20;;
11685;SDS011;5899;51.282;6.094;2022-10-03T05:13:33;20.67;;;13.45;;
11685;SDS011;5899;51.282;6.094;2022-10-03T05:16:07;16.98;;;12.80;;
11685;SDS011;5899;51.282;6.094;2022-10-03T05:18:39;22.63;;;13.68;;
11685;SDS011;5899;51.282;6.094;2022-10-03T05:21:10;15.85;;;13.25;;
11685;SDS011;5899;51.282;6.094;2022-10-03T05:23:49;18.75;;;13.27;;
11685;SDS011;5899;51.282;6.094;2022-10-03T05:26:22;23.35;;;14.55;;
11685;SDS011;5899;51.282;6.094;2022-10-03T05:29:02;23.38;;;16.00;;
11685;SDS011;5899;51.282;6.094;2022-10-03T05:31:47;18.83;;;14.27;;
11685;SDS011;5899;51.282;6.094;2022-10-03T05:34:18;19.40;;;15.65;;
11685;SDS011;5899;51.282;6.094;2022-10-03T05:36:54;25.23;;;16.70;;
11685;SDS011;5899;51.282;6.094;2022-10-03T05:39:26;21.92;;;15.98;;
11685;SDS011;5899;51.282;6.094;2022-10-03T05:41:59;24.60;;;15.00;;
11685;SDS011;5899;51.282;6.094;2022-10-03T05:44:44;24.65;;;16.90;;
11685;SDS011;5899;51.282;6.094;2022-10-03T05:47:24;22.30;;;16.30;;
11685;SDS011;5899;51.282;6.094;2022-10-03T05:53:05;25.95;;;16.02;;
11685;SDS011;5899;51.282;6.094;2022-10-03T05:55:36;27.95;;;16.52;;
11685;SDS011;5899;51.282;6.094;2022-10-03T05:58:16;21.40;;;15.13;;
11685;SDS011;5899;51.282;6.094;2022-10-03T06:00:54;21.48;;;16.17;;
11685;SDS011;5899;51.282;6.094;2022-10-03T06:06:32;28.45;;;19.08;;
11685;SDS011;5899;51.282;6.094;2022-10-03T06:09:14;21.27;;;16.88;;
11685;SDS011;5899;51.282;6.094;2022-10-03T06:11:58;23.48;;;18.50;;
11685;SDS011;5899;51.282;6.094;2022-10-03T06:14:31;25.08;;;19.02;;
11685;SDS011;5899;51.282;6.094;2022-10-03T06:17:24;24.10;;;18.60;;
11685;SDS011;5899;51.282;6.094;2022-10-03T06:43:47;27.73;;;18.02;;
11685;SDS011;5899;51.282;6.094;2022-10-03T06:57:30;27.10;;;20.25;;
11685;SDS011;5899;51.282;6.094;2022-10-03T07:00:11;24.67;;;19.85;;
11685;SDS011;5899;51.282;6.094;2022-10-03T07:02:57;23.30;;;18.95;;
11685;SDS011;5899;51.282;6.094;2022-10-03T07:11:10;23.27;;;18.50;;
11685;SDS011;5899;51.282;6.094;2022-10-03T07:16:43;24.48;;;19.42;;
11685;SDS011;5899;51.282;6.094;2022-10-03T07:19:27;25.50;;;19.92;;
11685;SDS011;5899;51.282;6.094;2022-10-03T07:27:40;29.10;;;21.67;;
11685;SDS011;5899;51.282;6.094;2022-10-03T07:30:22;25.23;;;19.77;;
11685;SDS011;5899;51.282;6.094;2022-10-03T07:35:44;26.77;;;20.38;;
11685;SDS011;5899;51.282;6.094;2022-10-03T07:41:56;27.45;;;19.95;;
11685;SDS011;5899;51.282;6.094;2022-10-03T07:47:32;24.23;;;19.63;;
11685;SDS011;5899;51.282;6.094;2022-10-03T07:50:18;25.02;;;19.58;;
11685;SDS011;5899;51.282;6.094;2022-10-03T07:52:56;26.60;;;19.42;;
11685;SDS011;5899;51.282;6.094;2022-10-03T07:55:27;25.05;;;19.48;;
11685;SDS011;5899;51.282;6.094;2022-10-03T07:58:04;23.88;;;20.30;;
11685;SDS011;5899;51.282;6.094;2022-10-03T08:00:34;24.00;;;19.98;;
11685;SDS011;5899;51.282;6.094;2022-10-03T08:06:04;22.83;;;18.33;;
11685;SDS011;5899;51.282;6.094;2022-10-03T08:08:45;23.52;;;18.42;;
11685;SDS011;5899;51.282;6.094;2022-10-03T08:11:32;25.90;;;17.92;;
11685;SDS011;5899;51.282;6.094;2022-10-03T08:14:06;26.45;;;17.85;;
11685;SDS011;5899;51.282;6.094;2022-10-03T08:19:24;23.60;;;16.90;;
11685;SDS011;5899;51.282;6.094;2022-10-03T08:22:02;20.80;;;15.80;;
11685;SDS011;5899;51.282;6.094;2022-10-03T08:24:53;19.02;;;15.45;;
11685;SDS011;5899;51.282;6.094;2022-10-03T08:30:17;20.80;;;14.88;;
11685;SDS011;5899;51.282;6.094;2022-10-03T08:32:56;21.73;;;16.55;;
11685;SDS011;5899;51.282;6.094;2022-10-03T08:35:34;22.83;;;16.48;;
11685;SDS011;5899;51.282;6.094;2022-10-03T08:40:57;18.90;;;14.35;;
11685;SDS011;5899;51.282;6.094;2022-10-03T08:43:58;23.95;;;13.93;;
11685;SDS011;5899;51.282;6.094;2022-10-03T08:49:09;15.65;;;12.88;;
11685;SDS011;5899;51.282;6.094;2022-10-03T08:51:48;19.13;;;13.55;;
11685;SDS011;5899;51.282;6.094;2022-10-03T08:54:25;18.38;;;13.07;;
11685;SDS011;5899;51.282;6.094;2022-10-03T08:57:04;14.70;;;13.13;;
11685;SDS011;5899;51.282;6.094;2022-10-03T09:05:24;15.05;;;11.13;;
11685;SDS011;5899;51.282;6.094;2022-10-03T09:16:33;18.25;;;10.40;;
11685;SDS011;5899;51.282;6.094;2022-10-03T09:19:10;14.27;;;9.98;;
11685;SDS011;5899;51.282;6.094;2022-10-03T09:21:59;14.88;;;9.40;;
11685;SDS011;5899;51.282;6.094;2022-10-03T09:24:39;18.73;;;9.98;;
11685;SDS011;5899;51.282;6.094;2022-10-03T09:27:17;12.43;;;9.13;;
11685;SDS011;5899;51.282;6.094;2022-10-03T09:38:01;12.35;;;8.85;;
11685;SDS011;5899;51.282;6.094;2022-10-03T09:43:32;14.63;;;9.00;;
11685;SDS011;5899;51.282;6.094;2022-10-03T09:46:07;14.38;;;7.97;;
11685;SDS011;5899;51.282;6.094;2022-10-03T09:48:43;15.32;;;7.38;;
11685;SDS011;5899;51.282;6.094;2022-10-03T09:51:21;15.90;;;7.80;;
11685;SDS011;5899;51.282;6.094;2022-10-03T09:54:15;11.40;;;6.55;;
11685;SDS011;5899;51.282;6.094;2022-10-03T09:59:40;10.75;;;4.72;;
11685;SDS011;5899;51.282;6.094;2022-10-03T10:02:38;9.43;;;5.18;;
11685;SDS011;5899;51.282;6.094;2022-10-03T10:05:21;12.50;;;6.38;;
11685;SDS011;5899;51.282;6.094;2022-10-03T10:13:32;11.70;;;4.70;;
11685;SDS011;5899;51.282;6.094;2022-10-03T10:16:16;11.00;;;4.05;;
11685;SDS011;5899;51.282;6.094;2022-10-03T10:19:03;10.82;;;4.80;;
11685;SDS011;5899;51.282;6.094;2022-10-03T10:24:27;10.50;;;4.00;;
11685;SDS011;5899;51.282;6.094;2022-10-03T10:30:07;9.48;;;4.38;;
11685;SDS011;5899;51.282;6.094;2022-10-03T10:41:11;8.10;;;3.38;;
11685;SDS011;5899;51.282;6.094;2022-10-03T10:49:47;8.18;;;3.65;;
11685;SDS011;5899;51.282;6.094;2022-10-03T10:55:10;6.82;;;2.63;;
11685;SDS011;5899;51.282;6.094;2022-10-03T10:57:51;9.15;;;3.70;;
11685;SDS011;5899;51.282;6.094;2022-10-03T11:00:32;6.85;;;3.90;;
11685;SDS011;5899;51.282;6.094;2022-10-03T11:08:53;6.93;;;3.28;;
11685;SDS011;5899;51.282;6.094;2022-10-03T11:14:21;6.28;;;3.35;;
11685;SDS011;5899;51.282;6.094;2022-10-03T11:19:58;7.03;;;2.88;;
11685;SDS011;5899;51.282;6.094;2022-10-03T11:34:05;8.32;;;2.90;;
11685;SDS011;5899;51.282;6.094;2022-10-03T11:37:07;7.47;;;2.97;;
11685;SDS011;5899;51.282;6.094;2022-10-03T11:39:43;6.38;;;3.05;;
11685;SDS011;5899;51.282;6.094;2022-10-03T11:42:25;5.65;;;3.08;;
11685;SDS011;5899;51.282;6.094;2022-10-03T11:44:57;7.00;;;3.10;;
11685;SDS011;5899;51.282;6.094;2022-10-03T11:50:27;9.10;;;2.83;;
11685;SDS011;5899;51.282;6.094;2022-10-03T11:52:59;6.43;;;2.95;;
11685;SDS011;5899;51.282;6.094;2022-10-03T11:55:30;6.97;;;2.63;;
11685;SDS011;5899;51.282;6.094;2022-10-03T11:58:07;3.30;;;2.45;;
11685;SDS011;5899;51.282;6.094;2022-10-03T12:00:38;6.65;;;2.55;;
11685;SDS011;5899;51.282;6.094;2022-10-03T12:03:14;7.93;;;3.10;;
11685;SDS011;5899;51.282;6.094;2022-10-03T12:05:47;6.25;;;2.90;;
11685;SDS011;5899;51.282;6.094;2022-10-03T12:08:21;6.38;;;3.35;;
11685;SDS011;5899;51.282;6.094;2022-10-03T12:11:09;7.00;;;3.10;;
11685;SDS011;5899;51.282;6.094;2022-10-03T12:13:40;8.20;;;3.05;;
11685;SDS011;5899;51.282;6.094;2022-10-03T12:16:11;7.32;;;2.60;;
11685;SDS011;5899;51.282;6.094;2022-10-03T12:18:52;6.30;;;3.10;;
11685;SDS011;5899;51.282;6.094;2022-10-03T12:21:23;7.18;;;3.17;;
11685;SDS011;5899;51.282;6.094;2022-10-03T12:23:58;7.53;;;2.78;;
11685;SDS011;5899;51.282;6.094;2022-10-03T12:26:30;6.85;;;3.28;;
11685;SDS011;5899;51.282;6.094;2022-10-03T12:29:06;6.03;;;3.13;;
11685;SDS011;5899;51.282;6.094;2022-10-03T12:31:36;5.97;;;3.05;;
11685;SDS011;5899;51.282;6.094;2022-10-03T12:34:10;6.40;;;3.00;;
11685;SDS011;5899;51.282;6.094;2022-10-03T12:36:46;9.95;;;3.10;;
11685;SDS011;5899;51.282;6.094;2022-10-03T12:39:19;4.95;;;2.90;;
11685;SDS011;5899;51.282;6.094;2022-10-03T12:41:54;5.45;;;2.80;;
11685;SDS011;5899;51.282;6.094;2022-10-03T12:44:31;6.10;;;3.00;;
11685;SDS011;5899;51.282;6.094;2022-10-03T12:47:02;7.45;;;2.70;;
11685;SDS011;5899;51.282;6.094;2022-10-03T12:49:40;7.78;;;3.10;;
11685;SDS011;5899;51.282;6.094;2022-10-03T12:52:14;7.90;;;3.20;;
11685;SDS011;5899;51.282;6.094;2022-10-03T12:54:45;6.60;;;2.92;;
11685;SDS011;5899;51.282;6.094;2022-10-03T12:59:59;8.95;;;2.90;;
11685;SDS011;5899;51.282;6.094;2022-10-03T13:02:28;6.97;;;2.97;;
11685;SDS011;5899;51.282;6.094;2022-10-03T13:07:41;6.07;;;3.38;;
11685;SDS011;5899;51.282;6.094;2022-10-03T13:10:17;7.28;;;3.13;;
11685;SDS011;5899;51.282;6.094;2022-10-03T13:12:46;11.98;;;3.15;;
11685;SDS011;5899;51.282;6.094;2022-10-03T13:18:27;5.70;;;2.60;;
11685;SDS011;5899;51.282;6.094;2022-10-03T13:20:57;8.85;;;3.55;;
11685;SDS011;5899;51.282;6.094;2022-10-03T13:23:30;8.85;;;3.30;;
11685;SDS011;5899;51.282;6.094;2022-10-03T13:26:00;7.57;;;2.75;;
11685;SDS011;5899;51.282;6.094;2022-10-03T13:28:33;8.85;;;3.13;;
11685;SDS011;5899;51.282;6.094;2022-10-03T13:31:04;7.85;;;3.47;;
11685;SDS011;5899;51.282;6.094;2022-10-03T13:33:36;7.47;;;3.30;;
11685;SDS011;5899;51.282;6.094;2022-10-03T13:36:12;7.93;;;2.92;;
11685;SDS011;5899;51.282;6.094;2022-10-03T13:41:57;5.47;;;2.42;;
11685;SDS011;5899;51.282;6.094;2022-10-03T13:44:33;5.90;;;2.35;;
11685;SDS011;5899;51.282;6.094;2022-10-03T13:47:01;9.05;;;2.83;;
11685;SDS011;5899;51.282;6.094;2022-10-03T13:49:31;5.72;;;2.60;;
11685;SDS011;5899;51.282;6.094;2022-10-03T13:52:03;6.68;;;2.55;;
11685;SDS011;5899;51.282;6.094;2022-10-03T13:54:52;9.10;;;2.67;;
11685;SDS011;5899;51.282;6.094;2022-10-03T13:57:27;5.72;;;2.78;;
11685;SDS011;5899;51.282;6.094;2022-10-03T13:59:57;6.10;;;2.75;;
11685;SDS011;5899;51.282;6.094;2022-10-03T14:02:41;7.47;;;2.95;;
11685;SDS011;5899;51.282;6.094;2022-10-03T14:05:26;7.78;;;2.58;;
11685;SDS011;5899;51.282;6.094;2022-10-03T14:07:57;5.18;;;2.70;;
11685;SDS011;5899;51.282;6.094;2022-10-03T14:13:16;5.45;;;2.70;;
11685;SDS011;5899;51.282;6.094;2022-10-03T14:15:49;7.53;;;2.80;;
11685;SDS011;5899;51.282;6.094;2022-10-03T14:18:26;9.68;;;2.95;;
11685;SDS011;5899;51.282;6.094;2022-10-03T14:21:10;7.60;;;2.42;;
11685;SDS011;5899;51.282;6.094;2022-10-03T14:23:43;7.30;;;2.53;;
11685;SDS011;5899;51.282;6.094;2022-10-03T14:26:16;5.25;;;2.65;;
11685;SDS011;5899;51.282;6.094;2022-10-03T14:28:48;4.75;;;2.20;;
11685;SDS011;5899;51.282;6.094;2022-10-03T14:31:20;6.35;;;2.35;;
11685;SDS011;5899;51.282;6.094;2022-10-03T14:33:50;6.88;;;2.70;;
11685;SDS011;5899;51.282;6.094;2022-10-03T14:36:27;4.88;;;2.47;;
11685;SDS011;5899;51.282;6.094;2022-10-03T14:39:02;4.68;;;2.45;;
11685;SDS011;5899;51.282;6.094;2022-10-03T14:41:37;6.70;;;2.63;;
11685;SDS011;5899;51.282;6.094;2022-10-03T14:44:14;4.65;;;2.20;;
11685;SDS011;5899;51.282;6.094;2022-10-03T14:46:43;6.53;;;3.03;;
11685;SDS011;5899;51.282;6.094;2022-10-03T14:49:15;6.18;;;2.50;;
11685;SDS011;5899;51.282;6.094;2022-10-03T14:51:44;5.57;;;2.20;;
11685;SDS011;5899;51.282;6.094;2022-10-03T14:54:18;7.88;;;2.80;;
11685;SDS011;5899;51.282;6.094;2022-10-03T14:56:45;6.35;;;2.58;;
11685;SDS011;5899;51.282;6.094;2022-10-03T14:59:17;4.95;;;2.53;;
11685;SDS011;5899;51.282;6.094;2022-10-03T15:01:48;7.93;;;2.97;;
11685;SDS011;5899;51.282;6.094;2022-10-03T15:04:20;6.72;;;2.92;;
11685;SDS011;5899;51.282;6.094;2022-10-03T15:06:54;3.65;;;2.20;;
11685;SDS011;5899;51.282;6.094;2022-10-03T15:09:30;6.82;;;2.67;;
11685;SDS011;5899;51.282;6.094;2022-10-03T15:12:01;6.00;;;2.70;;
11685;SDS011;5899;51.282;6.094;2022-10-03T15:14:33;6.03;;;2.35;;
11685;SDS011;5899;51.282;6.094;2022-10-03T15:17:03;5.43;;;2.60;;
11685;SDS011;5899;51.282;6.094;2022-10-03T15:19:31;6.22;;;2.60;;
11685;SDS011;5899;51.282;6.094;2022-10-03T15:22:03;6.80;;;2.38;;
11685;SDS011;5899;51.282;6.094;2022-10-03T15:24:31;6.75;;;3.03;;
11685;SDS011;5899;51.282;6.094;2022-10-03T15:27:00;5.38;;;2.70;;
11685;SDS011;5899;51.282;6.094;2022-10-03T15:29:39;6.90;;;2.58;;
11685;SDS011;5899;51.282;6.094;2022-10-03T15:32:06;4.15;;;2.30;;
11685;SDS011;5899;51.282;6.094;2022-10-03T15:34:37;7.40;;;2.63;;
11685;SDS011;5899;51.282;6.094;2022-10-03T15:37:11;7.63;;;2.90;;
11685;SDS011;5899;51.282;6.094;2022-10-03T15:39:49;7.00;;;2.60;;
11685;SDS011;5899;51.282;6.094;2022-10-03T15:42:19;5.65;;;2.28;;
11685;SDS011;5899;51.282;6.094;2022-10-03T15:44:52;6.90;;;2.78;;
11685;SDS011;5899;51.282;6.094;2022-10-03T15:47:21;7.13;;;2.67;;
11685;SDS011;5899;51.282;6.094;2022-10-03T15:50:19;3.92;;;2.50;;
11685;SDS011;5899;51.282;6.094;2022-10-03T15:52:45;7.40;;;2.85;;
11685;SDS011;5899;51.282;6.094;2022-10-03T16:04:16;6.95;;;2.50;;
11685;SDS011;5899;51.282;6.094;2022-10-03T16:06:48;8.50;;;2.58;;
11685;SDS011;5899;51.282;6.094;2022-10-03T16:09:22;6.90;;;2.63;;
11685;SDS011;5899;51.282;6.094;2022-10-03T16:12:20;6.45;;;2.70;;
11685;SDS011;5899;51.282;6.094;2022-10-03T16:14:41;5.00;;;2.38;;
11685;SDS011;5899;51.282;6.094;2022-10-03T16:17:10;5.93;;;2.40;;
11685;SDS011;5899;51.282;6.094;2022-10-03T16:19:43;7.18;;;2.90;;
11685;SDS011;5899;51.282;6.094;2022-10-03T16:22:15;5.38;;;3.55;;
11685;SDS011;5899;51.282;6.094;2022-10-03T16:24:45;8.75;;;3.72;;
11685;SDS011;5899;51.282;6.094;2022-10-03T16:27:16;6.28;;;3.67;;
11685;SDS011;5899;51.282;6.094;2022-10-03T16:29:44;6.78;;;3.58;;
11685;SDS011;5899;51.282;6.094;2022-10-03T16:32:19;8.15;;;3.65;;
11685;SDS011;5899;51.282;6.094;2022-10-03T16:34:49;4.80;;;3.10;;
11685;SDS011;5899;51.282;6.094;2022-10-03T16:37:19;5.60;;;3.08;;
11685;SDS011;5899;51.282;6.094;2022-10-03T16:39:57;4.95;;;3.00;;
11685;SDS011;5899;51.282;6.094;2022-10-03T16:42:28;10.40;;;3.38;;
11685;SDS011;5899;51.282;6.094;2022-10-03T16:45:05;8.73;;;3.05;;
11685;SDS011;5899;51.282;6.094;2022-10-03T16:47:48;8.57;;;2.47;;
11685;SDS011;5899;51.282;6.094;2022-10-03T16:50:40;5.20;;;2.42;;
11685;SDS011;5899;51.282;6.094;2022-10-03T16:53:16;4.60;;;2.50;;
11685;SDS011;5899;51.282;6.094;2022-10-03T16:55:53;3.78;;;2.70;;
11685;SDS011;5899;51.282;6.094;2022-10-03T16:58:22;4.43;;;2.40;;
11685;SDS011;5899;51.282;6.094;2022-10-03T17:00:52;5.20;;;2.45;;
11685;SDS011;5899;51.282;6.094;2022-10-03T17:03:23;14.55;;;3.60;;
11685;SDS011;5899;51.282;6.094;2022-10-03T17:05:52;7.78;;;2.55;;
11685;SDS011;5899;51.282;6.094;2022-10-03T17:08:24;11.02;;;3.25;;
11685;SDS011;5899;51.282;6.094;2022-10-03T17:11:05;5.95;;;2.88;;
11685;SDS011;5899;51.282;6.094;2022-10-03T17:13:37;11.52;;;3.15;;
11685;SDS011;5899;51.282;6.094;2022-10-03T17:16:07;7.55;;;2.85;;
11685;SDS011;5899;51.282;6.094;2022-10-03T17:18:37;13.88;;;3.63;;
11685;SDS011;5899;51.282;6.094;2022-10-03T17:21:12;6.15;;;3.75;;
11685;SDS011;5899;51.282;6.094;2022-10-03T17:23:55;5.05;;;4.30;;
11685;SDS011;5899;51.282;6.094;2022-10-03T17:26:30;6.43;;;3.42;;
11685;SDS011;5899;51.282;6.094;2022-10-03T17:29:19;5.55;;;3.30;;
11685;SDS011;5899;51.282;6.094;2022-10-03T17:31:52;4.72;;;3.25;;
11685;SDS011;5899;51.282;6.094;2022-10-03T17:34:56;8.10;;;3.85;;
11685;SDS011;5899;51.282;6.094;2022-10-03T17:40:12;6.47;;;3.85;;
11685;SDS011;5899;51.282;6.094;2022-10-03T17:42:42;7.55;;;3.83;;
11685;SDS011;5899;51.282;6.094;2022-10-03T17:45:16;6.68;;;3.10;;
11685;SDS011;5899;51.282;6.094;2022-10-03T17:47:49;6.78;;;3.65;;
11685;SDS011;5899;51.282;6.094;2022-10-03T17:50:22;8.68;;;4.50;;
11685;SDS011;5899;51.282;6.094;2022-10-03T17:52:50;9.93;;;6.28;;
11685;SDS011;5899;51.282;6.094;2022-10-03T17:55:21;11.52;;;7.68;;
11685;SDS011;5899;51.282;6.094;2022-10-03T17:57:51;16.23;;;8.50;;
11685;SDS011;5899;51.282;6.094;2022-10-03T18:00:19;12.32;;;7.53;;
11685;SDS011;5899;51.282;6.094;2022-10-03T18:02:53;11.73;;;6.68;;
11685;SDS011;5899;51.282;6.094;2022-10-03T18:05:21;10.88;;;5.40;;
11685;SDS011;5899;51.282;6.094;2022-10-03T18:07:52;7.88;;;4.97;;
11685;SDS011;5899;51.282;6.094;2022-10-03T18:13:20;7.45;;;4.50;;
11685;SDS011;5899;51.282;6.094;2022-10-03T18:16:00;7.10;;;4.82;;
11685;SDS011;5899;51.282;6.094;2022-10-03T18:21:18;5.72;;;4.53;;
11685;SDS011;5899;51.282;6.094;2022-10-03T18:23:58;10.15;;;6.45;;
11685;SDS011;5899;51.282;6.094;2022-10-03T18:26:31;7.57;;;6.00;;
11685;SDS011;5899;51.282;6.094;2022-10-03T18:29:03;8.95;;;5.20;;
11685;SDS011;5899;51.282;6.094;2022-10-03T18:31:39;9.23;;;4.47;;
11685;SDS011;5899;51.282;6.094;2022-10-03T18:34:12;7.13;;;4.20;;
11685;SDS011;5899;51.282;6.094;2022-10-03T18:36:41;8.90;;;3.97;;
11685;SDS011;5899;51.282;6.094;2022-10-03T18:39:09;7.50;;;3.72;;
11685;SDS011;5899;51.282;6.094;2022-10-03T18:41:41;5.00;;;4.03;;
11685;SDS011;5899;51.282;6.094;2022-10-03T18:44:14;6.38;;;4.30;;
11685;SDS011;5899;51.282;6.094;2022-10-03T18:46:43;7.63;;;4.20;;
11685;SDS011;5899;51.282;6.094;2022-10-03T18:49:15;4.93;;;4.03;;
11685;SDS011;5899;51.282;6.094;2022-10-03T18:51:43;8.80;;;4.65;;
11685;SDS011;5899;51.282;6.094;2022-10-03T18:54:18;7.30;;;4.63;;
11685;SDS011;5899;51.282;6.094;2022-10-03T18:56:56;7.88;;;5.22;;
11685;SDS011;5899;51.282;6.094;2022-10-03T18:59:29;7.18;;;5.15;;
11685;SDS011;5899;51.282;6.094;2022-10-03T19:02:04;22.17;;;11.43;;
11685;SDS011;5899;51.282;6.094;2022-10-03T19:04:41;31.08;;;15.48;;
11685;SDS011;5899;51.282;6.094;2022-10-03T19:07:12;23.95;;;13.45;;
11685;SDS011;5899;51.282;6.094;2022-10-03T19:09:53;51.95;;;15.45;;
11685;SDS011;5899;51.282;6.094;2022-10-03T19:12:33;20.20;;;12.75;;
11685;SDS011;5899;51.282;6.094;2022-10-03T19:15:16;23.40;;;11.98;;
11685;SDS011;5899;51.282;6.094;2022-10-03T19:18:00;19.52;;;12.30;;
11685;SDS011;5899;51.282;6.094;2022-10-03T19:20:35;25.45;;;22.73;;
11685;SDS011;5899;51.282;6.094;2022-10-03T19:23:04;16.70;;;11.10;;
11685;SDS011;5899;51.282;6.094;2022-10-03T19:25:43;11.90;;;8.43;;
11685;SDS011;5899;51.282;6.094;2022-10-03T19:28:22;12.15;;;7.57;;
11685;SDS011;5899;51.282;6.094;2022-10-03T19:33:52;10.80;;;8.93;;
11685;SDS011;5899;51.282;6.094;2022-10-03T19:36:22;12.02;;;9.70;;